createdAt,value
2023-05-09T00:01:25.185Z,116.30
2023-05-09T00:03:52.192Z,90.20
2023-05-09T00:06:19.814Z,68.77
2023-05-09T00:08:46.692Z,69.60
2023-05-09T00:11:13.910Z,68.60
2023-05-09T00:13:41.937Z,79.23
2023-05-09T00:16:09.331Z,71.50
2023-05-09T00:18:37.557Z,66.90
2023-05-09T00:21:04.548Z,58.67
2023-05-09T00:23:31.602Z,45.13
2023-05-09T00:25:59.481Z,43.03
2023-05-09T00:28:26.681Z,39.07
2023-05-09T00:30:53.827Z,39.70
2023-05-09T00:33:20.971Z,29.63
2023-05-09T00:35:47.891Z,24.93
2023-05-09T00:38:15.037Z,24.47
2023-05-09T00:40:41.850Z,24.17
2023-05-09T00:43:08.889Z,27.60
2023-05-09T00:45:35.752Z,31.87
2023-05-09T00:48:03.480Z,25.33
2023-05-09T00:50:31.521Z,30.07
2023-05-09T00:52:58.773Z,33.83
2023-05-09T00:55:27.244Z,29.80
2023-05-09T00:57:54.327Z,33.17
2023-05-09T01:00:21.544Z,25.77
2023-05-09T01:02:53.216Z,20.83
2023-05-09T01:05:21.620Z,20.93
2023-05-09T01:08:21.768Z,22.90
2023-05-09T01:11:01.138Z,21.80
2023-05-09T01:13:37.459Z,21.93
2023-05-09T01:16:11.292Z,22.20
2023-05-09T01:18:42.814Z,22.27
2023-05-09T01:21:20.682Z,20.17
2023-05-09T01:23:54.196Z,18.17
2023-05-09T01:26:36.508Z,18.70
2023-05-09T01:29:31.800Z,23.87
2023-05-09T01:32:02.489Z,26.43
2023-05-09T01:34:32.393Z,27.57
2023-05-09T01:37:01.196Z,24.70
2023-05-09T01:39:31.671Z,22.60
2023-05-09T01:42:02.060Z,22.27
2023-05-09T01:44:35.970Z,27.00
2023-05-09T01:47:03.802Z,20.70
2023-05-09T01:49:32.813Z,19.97
2023-05-09T01:52:04.005Z,20.57
2023-05-09T01:54:33.287Z,24.00
2023-05-09T01:57:01.506Z,22.97
2023-05-09T01:59:30.067Z,23.30
2023-05-09T02:01:57.598Z,20.70
2023-05-09T02:04:25.508Z,24.13
2023-05-09T02:06:53.696Z,23.00
2023-05-09T02:09:21.513Z,27.17
2023-05-09T02:11:48.458Z,25.10
2023-05-09T02:14:15.901Z,31.10
2023-05-09T02:16:42.800Z,28.17
2023-05-09T02:19:09.831Z,23.00
2023-05-09T02:21:36.741Z,25.33
2023-05-09T02:24:04.546Z,25.97
2023-05-09T02:26:31.645Z,22.13
2023-05-09T02:28:59.187Z,23.43
2023-05-09T02:31:29.606Z,26.27
2023-05-09T02:33:57.339Z,23.83
2023-05-09T02:36:24.508Z,23.33
2023-05-09T02:38:52.124Z,24.60
2023-05-09T02:41:18.836Z,23.53
2023-05-09T02:43:47.902Z,29.03
2023-05-09T02:46:15.904Z,25.33
2023-05-09T02:48:43.045Z,25.33
2023-05-09T02:51:09.741Z,27.57
2023-05-09T02:53:36.737Z,28.10
2023-05-09T02:56:03.962Z,25.17
2023-05-09T02:58:31.018Z,29.00
2023-05-09T03:00:57.797Z,28.83
2023-05-09T03:03:25.385Z,27.37
2023-05-09T03:05:52.384Z,31.67
2023-05-09T03:08:19.507Z,27.93
2023-05-09T03:10:47.699Z,27.93
2023-05-09T03:13:14.855Z,30.30
2023-05-09T03:15:42.014Z,25.73
2023-05-09T03:18:09.987Z,27.07
2023-05-09T03:20:36.824Z,29.97
2023-05-09T03:23:04.198Z,25.70
2023-05-09T03:25:31.495Z,25.77
2023-05-09T03:27:58.654Z,26.07
2023-05-09T03:30:26.507Z,29.93
2023-05-09T03:32:55.264Z,26.97
2023-05-09T03:35:22.324Z,30.33
2023-05-09T03:37:49.386Z,25.67
2023-05-09T03:40:16.399Z,28.10
2023-05-09T03:42:50.049Z,30.73
2023-05-09T03:45:17.096Z,26.67
2023-05-09T03:47:46.358Z,27.83
2023-05-09T03:50:13.905Z,26.37
2023-05-09T03:52:41.700Z,25.43
2023-05-09T03:55:09.103Z,27.17
2023-05-09T03:57:37.300Z,24.73
2023-05-09T04:00:08.118Z,25.03
2023-05-09T04:02:42.396Z,27.97
2023-05-09T04:05:17.419Z,20.40
2023-05-09T04:07:45.685Z,23.70
2023-05-09T04:10:13.002Z,24.80
2023-05-09T04:12:40.103Z,22.13
2023-05-09T04:15:07.679Z,25.43
2023-05-09T04:17:35.770Z,21.17
2023-05-09T04:20:03.192Z,24.90
2023-05-09T04:22:30.671Z,25.33
2023-05-09T04:24:57.526Z,24.27
2023-05-09T04:27:25.685Z,25.47
2023-05-09T04:29:53.793Z,27.13
2023-05-09T04:32:22.740Z,27.27
2023-05-09T04:34:50.453Z,31.73
2023-05-09T04:37:22.007Z,28.57
2023-05-09T04:39:49.006Z,33.80
2023-05-09T04:42:22.264Z,29.80
2023-05-09T04:44:49.489Z,29.70
2023-05-09T04:47:16.841Z,32.97
2023-05-09T04:49:43.589Z,35.07
2023-05-09T04:52:10.700Z,35.80
2023-05-09T04:54:37.490Z,40.17
2023-05-09T04:57:17.224Z,37.63
2023-05-09T04:59:47.549Z,37.40
2023-05-09T05:02:15.843Z,37.13
2023-05-09T05:04:43.625Z,41.37
2023-05-09T05:07:10.850Z,33.27
2023-05-09T05:09:38.456Z,33.53
2023-05-09T05:12:09.277Z,34.23
2023-05-09T05:14:37.763Z,33.87
2023-05-09T05:17:08.538Z,33.63
2023-05-09T05:19:35.769Z,33.77
2023-05-09T05:22:05.053Z,31.97
2023-05-09T05:24:33.175Z,30.20
2023-05-09T05:27:00.439Z,28.57
2023-05-09T05:29:27.647Z,36.10
2023-05-09T05:31:55.471Z,29.67
2023-05-09T05:34:22.793Z,27.20
2023-05-09T05:36:50.762Z,32.03
2023-05-09T05:39:17.842Z,28.80
2023-05-09T05:41:44.858Z,26.57
2023-05-09T05:44:12.004Z,26.97
2023-05-09T05:46:39.307Z,25.07
2023-05-09T05:49:06.328Z,32.03
2023-05-09T05:51:34.210Z,27.67
2023-05-09T05:54:02.566Z,24.97
2023-05-09T05:56:30.727Z,26.80
2023-05-09T05:58:57.949Z,26.77
2023-05-09T06:01:25.115Z,19.97
2023-05-09T06:03:54.758Z,19.57
2023-05-09T06:06:24.450Z,21.53
2023-05-09T06:08:51.364Z,18.57
2023-05-09T06:11:18.911Z,15.68
2023-05-09T06:13:45.716Z,20.90
2023-05-09T06:16:19.486Z,16.70
2023-05-09T06:18:50.093Z,18.03
2023-05-09T06:21:17.175Z,15.30
2023-05-09T06:24:01.521Z,13.43
2023-05-09T06:26:31.081Z,14.07
2023-05-09T06:28:58.112Z,15.38
2023-05-09T06:31:25.869Z,14.27
2023-05-09T06:33:53.467Z,16.02
2023-05-09T06:36:20.548Z,11.88
2023-05-09T06:38:47.351Z,13.77
2023-05-09T06:41:14.543Z,15.02
2023-05-09T06:43:41.329Z,14.30
2023-05-09T06:46:08.719Z,15.63
2023-05-09T06:48:35.737Z,11.70
2023-05-09T06:51:03.050Z,13.18
2023-05-09T06:53:29.901Z,11.75
2023-05-09T06:55:56.999Z,17.05
2023-05-09T06:58:23.782Z,12.57
2023-05-09T07:00:51.466Z,10.55
2023-05-09T07:03:18.290Z,9.55
2023-05-09T07:05:45.586Z,11.40
2023-05-09T07:08:12.356Z,14.52
2023-05-09T07:10:39.615Z,7.78
2023-05-09T07:13:06.595Z,7.57
2023-05-09T07:15:41.408Z,8.73
2023-05-09T07:18:09.531Z,6.72
2023-05-09T07:20:37.321Z,8.25
2023-05-09T07:23:04.668Z,10.40
2023-05-09T07:25:31.914Z,9.07
2023-05-09T07:27:58.664Z,9.30
2023-05-09T07:30:25.778Z,6.97
2023-05-09T07:32:52.938Z,8.18
2023-05-09T07:35:20.459Z,5.78
2023-05-09T07:37:47.271Z,4.22
2023-05-09T07:40:14.911Z,4.20
2023-05-09T07:42:45.077Z,6.50
2023-05-09T07:45:12.505Z,4.30
2023-05-09T07:47:39.354Z,3.38
2023-05-09T07:50:07.125Z,6.63
2023-05-09T07:52:33.901Z,5.80
2023-05-09T07:55:01.049Z,9.30
2023-05-09T07:57:28.015Z,6.72
2023-05-09T07:59:55.077Z,7.47
2023-05-09T08:02:21.855Z,4.57
2023-05-09T08:04:49.226Z,7.20
2023-05-09T08:07:16.166Z,5.30
2023-05-09T08:09:43.198Z,10.23
2023-05-09T08:12:09.958Z,6.40
2023-05-09T08:14:37.014Z,5.15
2023-05-09T08:17:03.746Z,5.15
2023-05-09T08:19:30.813Z,4.95
2023-05-09T08:21:57.582Z,6.18
2023-05-09T08:24:24.575Z,7.43
2023-05-09T08:26:51.303Z,6.03
2023-05-09T08:29:18.271Z,6.05
2023-05-09T08:31:45.174Z,9.57
2023-05-09T08:34:12.337Z,6.38
2023-05-09T08:36:40.932Z,7.07
2023-05-09T08:39:09.575Z,23.90
2023-05-09T08:41:37.001Z,7.40
2023-05-09T08:44:04.747Z,6.05
2023-05-09T08:46:38.783Z,5.10
2023-05-09T08:49:07.315Z,5.28
2023-05-09T08:51:35.861Z,5.03
2023-05-09T08:54:03.957Z,4.55
2023-05-09T08:56:31.787Z,7.53
2023-05-09T08:58:59.109Z,5.72
2023-05-09T09:01:29.249Z,8.90
2023-05-09T09:03:56.515Z,6.10
2023-05-09T09:06:25.715Z,7.38
2023-05-09T09:08:55.952Z,6.53
2023-05-09T09:11:23.040Z,6.85
2023-05-09T09:13:52.707Z,6.10
2023-05-09T09:16:21.464Z,5.90
2023-05-09T09:18:52.313Z,8.45
2023-05-09T09:21:20.761Z,4.90
2023-05-09T09:23:48.977Z,6.00
2023-05-09T09:26:16.463Z,4.55
2023-05-09T09:28:43.650Z,7.47
2023-05-09T09:31:24.042Z,8.70
2023-05-09T09:33:51.826Z,6.22
2023-05-09T09:36:29.176Z,4.03
2023-05-09T09:39:00.912Z,4.28
2023-05-09T09:41:34.592Z,6.32
2023-05-09T09:44:14.995Z,14.18
2023-05-09T09:46:48.887Z,7.47
2023-05-09T09:49:17.956Z,6.70
2023-05-09T09:51:45.591Z,5.50
2023-05-09T09:54:13.387Z,5.50
2023-05-09T09:56:47.800Z,3.15
2023-05-09T09:59:16.821Z,5.50
2023-05-09T10:01:59.730Z,9.93
2023-05-09T10:04:29.757Z,7.18
2023-05-09T10:07:05.051Z,7.97
2023-05-09T10:09:33.621Z,6.15
2023-05-09T10:12:04.135Z,6.68
2023-05-09T10:14:35.187Z,5.28
2023-05-09T10:17:04.789Z,11.00
2023-05-09T10:19:32.720Z,5.22
2023-05-09T10:22:05.015Z,6.47
2023-05-09T10:24:39.491Z,8.88
2023-05-09T10:27:10.500Z,7.75
2023-05-09T10:29:41.470Z,8.77
2023-05-09T10:32:17.082Z,4.05
2023-05-09T10:34:47.923Z,8.80
2023-05-09T10:37:15.756Z,10.90
2023-05-09T10:39:43.768Z,5.07
2023-05-09T10:42:12.696Z,8.07
2023-05-09T10:44:40.053Z,4.82
2023-05-09T10:47:07.392Z,5.75
2023-05-09T10:49:37.085Z,8.80
2023-05-09T10:52:04.412Z,10.32
2023-05-09T10:54:33.619Z,5.53
2023-05-09T10:57:00.889Z,6.20
2023-05-09T10:59:43.553Z,7.60
2023-05-09T11:02:14.693Z,6.78
2023-05-09T11:04:42.101Z,7.97
2023-05-09T11:07:27.657Z,6.38
2023-05-09T11:10:17.812Z,7.85
2023-05-09T11:12:59.438Z,7.32
2023-05-09T11:15:29.650Z,7.22
2023-05-09T11:18:11.029Z,5.18
2023-05-09T11:20:46.012Z,9.55
2023-05-09T11:23:17.393Z,6.72
2023-05-09T11:25:49.350Z,4.57
2023-05-09T11:28:33.711Z,11.25
2023-05-09T11:31:15.100Z,7.90
2023-05-09T11:33:43.562Z,4.10
2023-05-09T11:36:20.250Z,5.95
2023-05-09T11:38:47.920Z,12.18
2023-05-09T11:41:15.649Z,6.97
2023-05-09T11:43:44.669Z,5.60
2023-05-09T11:46:12.750Z,6.45
2023-05-09T11:48:41.919Z,7.05
2023-05-09T11:51:17.715Z,6.75
2023-05-09T11:53:46.976Z,7.15
2023-05-09T11:56:14.646Z,3.95
2023-05-09T11:58:42.229Z,7.68
2023-05-09T12:01:12.238Z,7.45
2023-05-09T12:03:44.386Z,10.50
2023-05-09T12:06:18.760Z,7.45
2023-05-09T12:08:46.788Z,11.07
2023-05-09T12:11:15.087Z,8.23
2023-05-09T12:13:50.115Z,10.27
2023-05-09T12:16:18.004Z,11.45
2023-05-09T12:18:49.899Z,7.53
2023-05-09T12:21:18.070Z,5.65
2023-05-09T12:23:47.890Z,4.78
2023-05-09T12:26:17.618Z,6.80
2023-05-09T12:28:44.491Z,6.85
2023-05-09T12:31:12.395Z,9.13
2023-05-09T12:33:39.786Z,8.32
2023-05-09T12:36:06.987Z,6.97
2023-05-09T12:38:34.069Z,11.20
2023-05-09T12:41:18.805Z,7.45
2023-05-09T12:43:56.108Z,10.82
2023-05-09T12:46:23.440Z,6.70
2023-05-09T12:48:50.338Z,5.82
2023-05-09T12:51:21.341Z,7.53
2023-05-09T12:53:49.111Z,7.47
2023-05-09T12:56:19.413Z,6.13
2023-05-09T12:58:51.229Z,5.97
2023-05-09T13:01:19.428Z,6.97
2023-05-09T13:03:52.427Z,9.60
2023-05-09T13:06:21.090Z,5.88
2023-05-09T13:08:59.028Z,11.07
2023-05-09T13:11:27.076Z,6.53
2023-05-09T13:13:56.712Z,7.50
2023-05-09T13:16:24.295Z,7.47
2023-05-09T13:18:51.332Z,5.95
2023-05-09T13:21:18.458Z,5.38
2023-05-09T13:23:45.652Z,9.02
2023-05-09T13:26:12.900Z,7.68
2023-05-09T13:28:39.662Z,4.82
2023-05-09T13:31:07.020Z,6.70
2023-05-09T13:33:34.035Z,6.43
2023-05-09T13:36:01.135Z,5.28
2023-05-09T13:38:30.841Z,5.75
2023-05-09T13:40:58.330Z,7.32
2023-05-09T13:43:25.122Z,7.10
2023-05-09T13:45:52.183Z,8.55
2023-05-09T13:48:18.956Z,4.88
2023-05-09T13:50:46.658Z,4.47
2023-05-09T13:53:13.456Z,7.85
2023-05-09T13:55:41.558Z,8.38
2023-05-09T13:58:10.297Z,4.10
2023-05-09T14:00:37.453Z,4.40
2023-05-09T14:03:04.501Z,7.45
2023-05-09T14:05:32.051Z,7.60
2023-05-09T14:07:58.819Z,6.25
2023-05-09T14:10:27.109Z,8.57
2023-05-09T14:12:54.171Z,5.03
2023-05-09T14:15:21.307Z,8.77
2023-05-09T14:17:48.090Z,7.18
2023-05-09T14:20:18.297Z,6.05
2023-05-09T14:22:45.195Z,7.07
2023-05-09T14:25:12.509Z,7.10
2023-05-09T14:27:39.303Z,4.53
2023-05-09T14:30:06.992Z,6.00
2023-05-09T14:32:33.732Z,10.38
2023-05-09T14:35:01.119Z,4.28
2023-05-09T14:37:29.364Z,6.05
2023-05-09T14:39:56.558Z,8.00
2023-05-09T14:42:23.378Z,7.32
2023-05-09T14:44:50.542Z,6.05
2023-05-09T14:47:17.682Z,9.60
2023-05-09T14:49:44.778Z,11.18
2023-05-09T14:52:11.752Z,10.35
2023-05-09T14:54:38.779Z,5.03
2023-05-09T14:57:07.385Z,7.25
2023-05-09T14:59:36.809Z,9.68
2023-05-09T15:02:04.324Z,6.75
2023-05-09T15:04:31.768Z,13.27
2023-05-09T15:06:59.106Z,7.32
2023-05-09T15:09:26.772Z,6.00
2023-05-09T15:11:54.792Z,6.00
2023-05-09T15:14:22.070Z,9.52
2023-05-09T15:16:51.511Z,8.63
2023-05-09T15:19:19.112Z,5.32
2023-05-09T15:21:45.980Z,3.97
2023-05-09T15:24:13.193Z,5.03
2023-05-09T15:26:39.952Z,6.10
2023-05-09T15:29:07.110Z,6.90
2023-05-09T15:31:36.305Z,9.95
2023-05-09T15:34:03.484Z,11.75
2023-05-09T15:36:31.049Z,5.75
2023-05-09T15:38:58.089Z,6.50
2023-05-09T15:41:25.103Z,8.48
2023-05-09T15:43:52.682Z,4.32
2023-05-09T15:46:19.454Z,10.80
2023-05-09T15:48:46.637Z,12.93
2023-05-09T15:51:13.888Z,4.03
2023-05-09T15:53:41.335Z,4.65
2023-05-09T15:56:09.013Z,6.22
2023-05-09T15:58:36.806Z,6.80
2023-05-09T16:01:06.085Z,8.25
2023-05-09T16:03:36.382Z,3.47
2023-05-09T16:06:03.608Z,6.07
2023-05-09T16:08:30.738Z,4.03
2023-05-09T16:11:00.765Z,11.02
2023-05-09T16:13:28.300Z,6.25
2023-05-09T16:15:55.173Z,11.82
2023-05-09T16:18:22.400Z,4.57
2023-05-09T16:20:49.177Z,7.72
2023-05-09T16:23:16.183Z,5.40
2023-05-09T16:25:42.939Z,10.57
2023-05-09T16:28:09.976Z,6.95
2023-05-09T16:30:37.118Z,5.60
2023-05-09T16:33:04.221Z,8.13
2023-05-09T16:35:31.070Z,4.45
2023-05-09T16:37:58.100Z,5.00
2023-05-09T16:40:24.894Z,6.43
2023-05-09T16:42:53.288Z,11.48
2023-05-09T16:45:20.092Z,5.30
2023-05-09T16:47:47.224Z,11.15
2023-05-09T16:50:14.134Z,7.85
2023-05-09T16:52:41.258Z,7.80
2023-05-09T16:55:08.460Z,3.65
2023-05-09T16:57:35.436Z,5.03
2023-05-09T17:00:02.224Z,6.70
2023-05-09T17:02:29.293Z,6.15
2023-05-09T17:04:56.953Z,12.60
2023-05-09T17:07:24.040Z,6.72
2023-05-09T17:09:50.905Z,4.75
2023-05-09T17:12:18.519Z,6.80
2023-05-09T17:14:46.811Z,6.95
2023-05-09T17:17:14.803Z,8.10
2023-05-09T17:19:41.766Z,8.63
2023-05-09T17:22:08.819Z,6.45
2023-05-09T17:24:35.678Z,5.75
2023-05-09T17:27:02.773Z,5.47
2023-05-09T17:29:30.713Z,8.95
2023-05-09T17:32:00.743Z,13.90
2023-05-09T17:34:28.245Z,10.88
2023-05-09T17:36:55.306Z,6.43
2023-05-09T17:39:22.078Z,7.00
2023-05-09T17:41:49.175Z,9.52
2023-05-09T17:44:16.634Z,7.07
2023-05-09T17:46:44.175Z,9.20
2023-05-09T17:49:13.980Z,5.85
2023-05-09T17:51:41.488Z,6.68
2023-05-09T17:54:08.734Z,7.40
2023-05-09T17:56:36.150Z,6.53
2023-05-09T17:59:02.915Z,3.63
2023-05-09T18:01:29.974Z,7.85
2023-05-09T18:03:57.095Z,8.80
2023-05-09T18:06:24.415Z,7.20
2023-05-09T18:08:51.430Z,6.57
2023-05-09T18:11:18.459Z,9.73
2023-05-09T18:13:45.294Z,4.38
2023-05-09T18:16:12.348Z,8.20
2023-05-09T18:18:39.100Z,11.00
2023-05-09T18:21:07.994Z,8.88
2023-05-09T18:23:34.949Z,6.57
2023-05-09T18:26:02.187Z,7.72
2023-05-09T18:28:29.185Z,10.82
2023-05-09T18:31:00.783Z,7.63
2023-05-09T18:33:28.666Z,7.85
2023-05-09T18:35:55.812Z,8.07
2023-05-09T18:38:22.798Z,6.00
2023-05-09T18:40:52.092Z,7.75
2023-05-09T18:43:22.401Z,8.15
2023-05-09T18:45:49.969Z,8.98
2023-05-09T18:48:17.051Z,6.72
2023-05-09T18:50:44.715Z,12.75
2023-05-09T18:53:11.616Z,9.45
2023-05-09T18:55:38.840Z,11.90
2023-05-09T18:58:06.725Z,11.65
2023-05-09T19:00:34.924Z,14.68
2023-05-09T19:03:02.012Z,13.57
2023-05-09T19:05:29.225Z,12.07
2023-05-09T19:07:56.100Z,11.63
2023-05-09T19:10:23.768Z,11.97
2023-05-09T19:12:50.659Z,13.52
2023-05-09T19:15:18.384Z,10.43
2023-05-09T19:17:45.250Z,10.18
2023-05-09T19:20:12.691Z,10.05
2023-05-09T19:22:44.152Z,11.03
2023-05-09T19:25:11.277Z,7.07
2023-05-09T19:27:38.110Z,14.73
2023-05-09T19:30:05.703Z,8.52
2023-05-09T19:32:32.541Z,7.65
2023-05-09T19:34:59.524Z,11.88
2023-05-09T19:37:26.348Z,8.27
2023-05-09T19:39:53.422Z,10.48
2023-05-09T19:42:20.127Z,8.73
2023-05-09T19:44:47.356Z,12.37
2023-05-09T19:47:14.072Z,10.77
2023-05-09T19:49:42.842Z,9.10
2023-05-09T19:52:09.712Z,7.33
2023-05-09T19:54:36.861Z,8.53
2023-05-09T19:57:06.397Z,10.77
2023-05-09T19:59:33.638Z,8.27
2023-05-09T20:02:00.496Z,9.98
2023-05-09T20:04:27.658Z,11.43
2023-05-09T20:06:54.422Z,11.02
2023-05-09T20:09:21.636Z,13.90
2023-05-09T20:11:48.537Z,16.43
2023-05-09T20:14:15.593Z,15.63
2023-05-09T20:16:43.748Z,13.83
2023-05-09T20:19:14.812Z,16.97
2023-05-09T20:21:41.779Z,20.03
2023-05-09T20:24:09.006Z,23.43
2023-05-09T20:26:35.750Z,18.93
2023-05-09T20:29:02.775Z,23.07
2023-05-09T20:31:30.690Z,27.50
2023-05-09T20:33:57.966Z,26.60
2023-05-09T20:36:25.318Z,30.17
2023-05-09T20:38:52.293Z,30.10
2023-05-09T20:41:19.179Z,26.33
2023-05-09T20:43:46.163Z,30.60
2023-05-09T20:46:14.046Z,30.13
2023-05-09T20:48:41.468Z,24.93
2023-05-09T20:51:08.231Z,23.10
2023-05-09T20:53:37.609Z,26.07
2023-05-09T20:56:04.571Z,24.53
2023-05-09T20:58:33.798Z,18.67
2023-05-09T21:01:00.706Z,15.93
2023-05-09T21:03:28.064Z,14.23
2023-05-09T21:05:54.915Z,12.63
2023-05-09T21:08:23.287Z,15.00
2023-05-09T21:10:52.933Z,13.90
2023-05-09T21:13:20.052Z,12.60
2023-05-09T21:15:52.825Z,11.20
2023-05-09T21:18:20.800Z,10.43
2023-05-09T21:20:47.477Z,12.60
2023-05-09T21:23:14.533Z,11.07
2023-05-09T21:25:41.816Z,10.17
2023-05-09T21:28:09.152Z,8.37
2023-05-09T21:30:36.247Z,9.60
2023-05-09T21:33:04.094Z,16.67
2023-05-09T21:35:30.950Z,10.77
2023-05-09T21:37:57.958Z,16.33
2023-05-09T21:40:24.835Z,16.00
2023-05-09T21:42:51.834Z,16.23
2023-05-09T21:45:19.642Z,10.77
2023-05-09T21:47:48.915Z,12.80
2023-05-09T21:50:16.042Z,15.13
2023-05-09T21:52:43.282Z,12.43
2023-05-09T21:55:10.084Z,11.47
2023-05-09T21:57:37.032Z,13.43
2023-05-09T22:00:06.232Z,16.93
2023-05-09T22:02:42.536Z,16.40
2023-05-09T22:05:11.017Z,11.77
2023-05-09T22:07:40.535Z,11.57
2023-05-09T22:10:08.027Z,13.47
2023-05-09T22:12:35.102Z,12.07
2023-05-09T22:15:02.290Z,14.33
2023-05-09T22:17:29.255Z,13.97
2023-05-09T22:19:56.113Z,8.47
2023-05-09T22:22:23.131Z,11.40
2023-05-09T22:24:49.966Z,10.30
2023-05-09T22:27:16.958Z,9.27
2023-05-09T22:29:43.792Z,11.93
2023-05-09T22:32:11.540Z,9.53
2023-05-09T22:34:38.339Z,12.30
2023-05-09T22:37:05.619Z,9.23
2023-05-09T22:39:32.343Z,11.30
2023-05-09T22:41:59.433Z,12.97
2023-05-09T22:44:26.122Z,8.97
2023-05-09T22:46:53.164Z,9.67
2023-05-09T22:49:19.847Z,9.97
2023-05-09T22:51:46.904Z,8.73
2023-05-09T22:54:13.622Z,10.40
2023-05-09T22:56:40.569Z,9.00
2023-05-09T22:59:07.369Z,8.33
2023-05-09T23:01:34.430Z,9.20
2023-05-09T23:04:01.230Z,15.80
2023-05-09T23:06:28.317Z,9.73
2023-05-09T23:08:55.033Z,10.93
2023-05-09T23:11:23.764Z,7.97
2023-05-09T23:13:50.510Z,10.37
2023-05-09T23:16:17.627Z,10.03
2023-05-09T23:18:44.418Z,8.50
2023-05-09T23:21:11.471Z,10.53
2023-05-09T23:23:38.188Z,7.23
2023-05-09T23:26:05.431Z,11.00
2023-05-09T23:28:32.110Z,7.47
2023-05-09T23:30:59.128Z,9.23
2023-05-09T23:33:25.970Z,8.67
2023-05-09T23:35:54.098Z,12.10
2023-05-09T23:38:20.805Z,15.33
2023-05-09T23:40:48.002Z,13.53
2023-05-09T23:43:15.096Z,10.20
2023-05-09T23:45:42.636Z,6.77
2023-05-09T23:48:09.388Z,8.10
2023-05-09T23:50:36.539Z,10.47
2023-05-09T23:53:04.891Z,7.17
2023-05-09T23:55:32.202Z,6.43
2023-05-09T23:57:59.543Z,9.87
